Time;durP1;ratioP1;P1;durP2;ratioP2;P2;SDS_P1;SDS_P2;PMS_P1;PMS_P2;Temp;Humidity;BMP_temperature;BMP_pressure;BME280_temperature;BME280_humidity;BME280_pressure;Samples;Min_cycle;Max_cycle;Signal;HPM_P1;HPM_P2
2020/12/19 00:00:35;;;;;;;18.92;9.13;;;3.70;84.70;;;;;;4981504;28;20122;-66
2020/12/19 00:03:01;;;;;;;58.35;11.13;;;3.70;84.80;;;;;;4983254;28;20097;-67
2020/12/19 00:05:26;;;;;;;24.33;10.10;;;3.70;85.00;;;;;;4981003;28;20049;-66
2020/12/19 00:07:52;;;;;;;45.03;10.55;;;3.80;85.10;;;;;;4981820;28;20061;-67
2020/12/19 00:10:17;;;;;;;87.82;10.93;;;3.80;85.30;;;;;;4983643;28;20046;-66
2020/12/19 00:12:45;;;;;;;119.05;12.23;;;3.80;85.20;;;;;;4985723;28;20085;-68
2020/12/19 00:15:13;;;;;;;44.63;10.20;;;3.80;84.80;;;;;;4981207;28;20035;-67
2020/12/19 00:17:39;;;;;;;104.60;12.38;;;3.80;84.50;;;;;;4981922;28;20042;-67
2020/12/19 00:20:04;;;;;;;72.25;11.55;;;3.80;84.30;;;;;;4978972;28;20521;-66
2020/12/19 00:22:30;;;;;;;55.50;10.77;;;3.80;84.20;;;;;;4977030;28;20066;-67
2020/12/19 00:24:55;;;;;;;49.10;9.68;;;3.80;84.30;;;;;;4978614;28;20050;-67
2020/12/19 00:27:21;;;;;;;65.25;10.60;;;3.70;84.40;;;;;;4981270;28;20469;-67
2020/12/19 00:29:47;;;;;;;58.17;11.80;;;3.70;84.60;;;;;;4980638;28;20074;-67
2020/12/19 00:32:12;;;;;;;72.13;11.45;;;3.70;84.60;;;;;;4980340;28;20122;-67
2020/12/19 00:34:38;;;;;;;77.18;11.73;;;3.70;84.60;;;;;;4979825;28;20038;-67
2020/12/19 00:37:03;;;;;;;98.78;11.60;;;3.70;84.40;;;;;;4982180;28;20064;-68
2020/12/19 00:39:29;;;;;;;57.90;9.55;;;3.70;84.20;;;;;;4982346;28;20454;-67
2020/12/19 00:41:56;;;;;;;79.00;11.60;;;3.60;85.00;;;;;;4978452;28;20039;-64
2020/12/19 00:44:21;;;;;;;85.47;11.27;;;3.60;84.30;;;;;;4981768;28;20070;-67
2020/12/19 00:46:51;;;;;;;69.80;11.05;;;3.60;84.40;;;;;;4978701;28;20035;-67
2020/12/19 00:49:17;;;;;;;61.92;10.73;;;3.60;84.50;;;;;;4981127;28;20410;-67
2020/12/19 00:51:43;;;;;;;78.55;10.85;;;3.60;84.40;;;;;;4978138;28;20501;-67
2020/12/19 00:54:08;;;;;;;65.30;10.52;;;3.50;84.40;;;;;;4980128;28;20034;-67
2020/12/19 00:56:34;;;;;;;41.67;9.85;;;3.50;84.20;;;;;;4980153;28;20120;-67
2020/12/19 00:58:59;;;;;;;40.47;9.82;;;3.50;84.40;;;;;;4980262;28;20034;-65
2020/12/19 01:01:26;;;;;;;71.43;10.63;;;3.50;84.50;;;;;;4980286;28;20049;-66
2020/12/19 01:03:59;;;;;;;52.38;9.48;;;3.50;84.70;;;;;;4979349;28;20114;-67
2020/12/19 01:06:26;;;;;;;52.88;10.77;;;3.50;84.90;;;;;;4980180;28;20045;-67
2020/12/19 01:08:55;;;;;;;50.10;9.25;;;3.50;84.90;;;;;;4980206;28;20062;-67
2020/12/19 01:11:22;;;;;;;30.60;9.00;;;3.60;85.10;;;;;;4977377;28;20039;-67
2020/12/19 01:13:48;;;;;;;89.38;10.43;;;3.60;85.10;;;;;;4979208;28;20061;-67
2020/12/19 01:16:19;;;;;;;49.08;9.02;;;3.60;85.90;;;;;;4978826;28;20035;-67
2020/12/19 01:18:46;;;;;;;25.35;8.55;;;3.60;84.90;;;;;;4977422;28;20539;-67
2020/12/19 01:21:21;;;;;;;28.98;8.48;;;3.60;84.80;;;;;;4980271;28;20039;-66
2020/12/19 01:23:48;;;;;;;;;;;3.60;84.80;;;;;;4982366;28;20038;-67
2020/12/19 01:26:14;;;;;;;67.43;9.50;;;3.70;85.00;;;;;;4979183;28;19974;-67
2020/12/19 01:28:40;;;;;;;51.25;9.88;;;3.70;84.90;;;;;;4978184;28;20054;-66
2020/12/19 01:31:11;;;;;;;61.97;9.50;;;3.80;84.70;;;;;;4975030;28;20038;-67
2020/12/19 01:33:37;;;;;;;15.25;9.23;;;3.70;84.70;;;;;;4981321;28;20118;-67
2020/12/19 01:36:03;;;;;;;61.15;9.73;;;3.70;84.60;;;;;;4977914;28;20137;-67
2020/12/19 01:38:29;;;;;;;65.63;10.02;;;3.70;84.70;;;;;;4976747;28;20038;-66
2020/12/19 01:40:56;;;;;;;21.75;8.35;;;3.70;84.70;;;;;;4980680;28;20053;-67
2020/12/19 01:43:23;;;;;;;25.85;8.88;;;3.80;84.70;;;;;;4979875;28;20038;-65
2020/12/19 01:45:50;;;;;;;32.25;9.38;;;3.80;84.70;;;;;;4981454;28;20069;-66
2020/12/19 01:48:22;;;;;;;74.07;10.15;;;3.80;84.70;;;;;;4979692;28;20027;-67
2020/12/19 01:50:49;;;;;;;126.45;11.23;;;3.80;84.60;;;;;;4979017;28;20349;-66
2020/12/19 01:53:22;;;;;;;32.33;8.82;;;3.90;84.30;;;;;;4979733;28;20042;-67
2020/12/19 01:55:51;;;;;;;72.75;10.38;;;3.90;84.00;;;;;;4978735;28;20043;-67
2020/12/19 01:58:17;;;;;;;34.83;8.45;;;3.90;84.10;;;;;;4979379;28;20065;-67
2020/12/19 02:00:43;;;;;;;62.90;9.77;;;3.80;83.80;;;;;;4980145;28;20423;-67
2020/12/19 02:03:09;;;;;;;34.53;9.10;;;3.80;83.80;;;;;;4981731;28;20387;-67
2020/12/19 02:05:43;;;;;;;36.05;8.90;;;3.80;83.90;;;;;;4980303;28;20462;-67
2020/12/19 02:08:10;;;;;;;54.75;9.82;;;3.80;83.90;;;;;;4979000;28;20117;-67
2020/12/19 02:10:36;;;;;;;38.58;8.60;;;3.80;84.00;;;;;;4975781;28;20080;-67
2020/12/19 02:13:05;;;;;;;22.38;7.97;;;3.90;84.00;;;;;;4980454;28;20038;-67
2020/12/19 02:15:48;;;;;;;74.82;10.10;;;3.80;84.00;;;;;;4979786;28;20046;-68
2020/12/19 02:18:13;;;;;;;103.65;10.00;;;3.90;83.70;;;;;;4978892;28;20115;-66
2020/12/19 02:20:39;;;;;;;127.82;11.38;;;3.90;83.50;;;;;;4977344;28;20054;-66
2020/12/19 02:23:07;;;;;;;144.63;10.02;;;3.80;83.10;;;;;;4976956;28;20031;-67
2020/12/19 02:25:37;;;;;;;123.47;11.45;;;3.80;82.80;;;;;;4979336;28;20548;-67
2020/12/19 02:28:06;;;;;;;161.65;12.27;;;3.70;82.80;;;;;;4978076;28;20074;-67
2020/12/19 02:30:37;;;;;;;57.08;8.73;;;3.60;82.80;;;;;;4977928;28;20089;-67
2020/12/19 02:33:03;;;;;;;18.00;7.50;;;3.60;83.10;;;;;;4978326;28;20035;-67
2020/12/19 02:35:28;;;;;;;24.27;6.97;;;3.50;83.30;;;;;;4978883;28;20125;-67
2020/12/19 02:37:54;;;;;;;116.88;10.70;;;3.50;83.80;;;;;;4979023;28;20118;-67
2020/12/19 02:40:20;;;;;;;27.25;8.27;;;3.50;84.20;;;;;;4976666;28;20031;-67
2020/12/19 02:42:45;;;;;;;34.25;8.45;;;3.50;84.20;;;;;;4978012;28;20830;-67
2020/12/19 02:45:11;;;;;;;23.50;7.82;;;3.50;84.20;;;;;;4979211;28;20026;-67
2020/12/19 02:47:37;;;;;;;12.32;7.32;;;3.50;84.40;;;;;;4979449;28;20030;-66
2020/12/19 02:50:05;;;;;;;211.30;14.00;;;3.50;84.40;;;;;;4979030;28;20042;-67
2020/12/19 02:52:30;;;;;;;198.07;10.70;;;3.60;84.30;;;;;;4976375;28;20046;-67
2020/12/19 02:54:56;;;;;;;47.03;8.25;;;3.50;83.90;;;;;;4978770;28;20120;-66
2020/12/19 02:57:22;;;;;;;53.40;8.20;;;3.50;83.50;;;;;;4979292;28;20033;-65
2020/12/19 02:59:47;;;;;;;28.35;8.40;;;3.50;83.60;;;;;;4977322;28;20053;-67
2020/12/19 03:02:13;;;;;;;27.08;8.13;;;3.50;83.80;;;;;;4978437;28;20567;-67
2020/12/19 03:04:39;;;;;;;56.60;8.35;;;3.60;84.10;;;;;;4978332;28;20084;-67
2020/12/19 03:07:04;;;;;;;141.52;11.13;;;3.50;84.20;;;;;;4977842;28;20081;-67
2020/12/19 03:09:30;;;;;;;30.35;7.18;;;3.50;84.20;;;;;;4977200;28;20457;-68
2020/12/19 03:11:55;;;;;;;48.42;9.00;;;3.60;84.00;;;;;;4977921;28;20034;-68
2020/12/19 03:14:21;;;;;;;27.38;6.70;;;3.60;84.00;;;;;;4978670;28;20489;-67
2020/12/19 03:16:47;;;;;;;43.55;7.40;;;3.60;84.00;;;;;;4978088;28;20035;-67
2020/12/19 03:19:12;;;;;;;36.17;7.15;;;3.60;84.10;;;;;;4978406;28;20163;-67
2020/12/19 03:21:38;;;;;;;151.95;10.48;;;3.60;83.90;;;;;;4976213;28;20050;-67
2020/12/19 03:24:05;;;;;;;12.52;6.00;;;3.60;83.80;;;;;;4979331;28;20037;-67
2020/12/19 03:26:31;;;;;;;294.50;13.25;;;3.60;83.50;;;;;;4976463;28;20061;-67
2020/12/19 03:28:56;;;;;;;22.40;6.18;;;3.70;83.20;;;;;;4977142;28;20038;-67
2020/12/19 03:31:22;;;;;;;66.63;8.05;;;3.40;82.70;;;;;;4977257;28;20031;-67
2020/12/19 03:33:48;;;;;;;23.50;7.20;;;3.60;83.20;;;;;;4978256;28;20047;-66
2020/12/19 03:36:13;;;;;;;34.78;7.05;;;3.50;83.50;;;;;;4977970;28;20030;-67
2020/12/19 03:38:39;;;;;;;129.13;8.95;;;3.50;83.70;;;;;;4976036;28;20050;-66
2020/12/19 03:41:04;;;;;;;149.50;9.88;;;3.50;83.60;;;;;;4977971;28;20035;-67
2020/12/19 03:43:30;;;;;;;59.25;8.05;;;3.50;83.30;;;;;;4979532;28;20219;-66
2020/12/19 03:45:56;;;;;;;99.88;8.15;;;3.40;82.90;;;;;;4978205;28;20038;-67
2020/12/19 03:48:22;;;;;;;89.40;8.43;;;3.40;83.00;;;;;;4978567;28;20097;-66
2020/12/19 03:50:47;;;;;;;74.45;7.50;;;3.30;83.00;;;;;;4976338;28;20042;-68
2020/12/19 03:53:13;;;;;;;28.48;6.38;;;3.30;83.20;;;;;;4975754;28;20461;-67
2020/12/19 03:55:39;;;;;;;128.50;9.13;;;3.30;83.50;;;;;;4979292;28;20098;-67
2020/12/19 03:58:04;;;;;;;128.35;7.90;;;3.30;83.70;;;;;;4978380;28;20047;-67
2020/12/19 04:00:30;;;;;;;169.57;9.52;;;3.20;83.40;;;;;;4976189;28;20437;-67
2020/12/19 04:02:56;;;;;;;154.82;9.13;;;3.20;83.30;;;;;;4974561;28;20051;-67
2020/12/19 04:05:21;;;;;;;112.18;7.93;;;3.20;83.20;;;;;;4978670;28;20035;-66
2020/12/19 04:07:47;;;;;;;75.35;7.63;;;3.10;83.40;;;;;;4983626;28;20528;-66
2020/12/19 04:10:12;;;;;;;134.52;9.02;;;3.00;83.50;;;;;;4981705;28;20039;-67
2020/12/19 04:12:38;;;;;;;79.47;6.93;;;3.00;83.70;;;;;;4979771;28;20050;-66
2020/12/19 04:15:08;;;;;;;119.40;8.75;;;3.00;84.00;;;;;;4981087;28;20037;-67
2020/12/19 04:17:35;;;;;;;173.15;9.88;;;3.00;84.00;;;;;;4981371;28;20038;-66
2020/12/19 04:20:01;;;;;;;167.77;10.95;;;3.00;83.80;;;;;;4979113;28;20041;-67
2020/12/19 04:22:27;;;;;;;77.35;7.55;;;3.00;83.50;;;;;;4976177;28;20046;-67
2020/12/19 04:24:52;;;;;;;133.02;8.25;;;3.00;83.50;;;;;;4981601;28;20114;-67
2020/12/19 04:27:18;;;;;;;59.00;7.78;;;2.90;83.70;;;;;;4982124;28;20041;-67
2020/12/19 04:29:43;;;;;;;116.82;7.53;;;2.90;83.80;;;;;;4981202;28;20033;-67
2020/12/19 04:32:09;;;;;;;22.30;5.68;;;2.90;84.00;;;;;;4979610;28;20532;-67
2020/12/19 04:34:35;;;;;;;9.23;5.38;;;2.90;84.00;;;;;;4979565;28;20100;-67
2020/12/19 04:37:01;;;;;;;28.10;6.88;;;2.80;84.00;;;;;;4984709;28;20034;-67
2020/12/19 04:39:26;;;;;;;25.02;6.05;;;2.80;84.20;;;;;;4978361;28;20116;-67
2020/12/19 04:41:52;;;;;;;92.95;7.07;;;2.90;84.50;;;;;;4979423;28;20072;-67
2020/12/19 04:44:19;;;;;;;60.53;7.53;;;2.90;84.70;;;;;;4981223;28;20054;-67
2020/12/19 04:46:45;;;;;;;59.30;6.57;;;3.00;84.70;;;;;;4979667;28;20035;-67
2020/12/19 04:49:12;;;;;;;58.25;7.28;;;3.00;84.70;;;;;;4979660;28;20517;-67
2020/12/19 04:51:38;;;;;;;82.78;7.82;;;3.00;84.60;;;;;;4979806;28;20122;-67
2020/12/19 04:54:05;;;;;;;132.30;8.70;;;3.00;84.40;;;;;;4979623;28;20035;-67
2020/12/19 04:56:31;;;;;;;32.13;5.43;;;3.10;84.20;;;;;;4981615;28;20035;-67
2020/12/19 04:58:58;;;;;;;108.07;7.32;;;3.10;83.70;;;;;;4977870;28;20557;-67
2020/12/19 05:01:24;;;;;;;80.45;7.55;;;3.00;83.70;;;;;;4977385;28;20038;-67
2020/12/19 05:03:54;;;;;;;32.95;6.03;;;3.00;83.60;;;;;;4980696;28;20038;-67
2020/12/19 05:06:23;;;;;;;76.82;6.93;;;3.00;83.60;;;;;;4979676;28;20800;-67
2020/12/19 05:08:49;;;;;;;101.93;7.18;;;3.00;83.50;;;;;;4978378;28;20045;-67
2020/12/19 05:11:15;;;;;;;89.82;7.35;;;3.00;83.40;;;;;;4979720;28;20038;-66
2020/12/19 05:13:42;;;;;;;98.28;9.15;;;2.90;83.30;;;;;;4981329;28;20529;-67
2020/12/19 05:16:12;;;;;;;31.27;5.93;;;2.90;83.00;;;;;;4979646;28;20043;-67
2020/12/19 05:18:39;;;;;;;58.75;6.45;;;2.80;83.80;;;;;;4979679;28;20035;-67
2020/12/19 05:21:06;;;;;;;92.97;7.70;;;2.70;83.50;;;;;;4980841;28;20038;-67
2020/12/19 05:23:34;;;;;;;77.60;7.05;;;2.70;83.70;;;;;;4978515;28;20038;-67
2020/12/19 05:25:59;;;;;;;145.80;7.78;;;2.70;83.70;;;;;;4980609;28;20125;-67
2020/12/19 05:28:25;;;;;;;85.63;6.78;;;2.70;83.60;;;;;;4980083;28;20133;-68
2020/12/19 05:30:51;;;;;;;44.88;5.65;;;2.60;83.40;;;;;;4980277;28;20050;-67
2020/12/19 05:33:16;;;;;;;30.35;6.70;;;2.70;83.70;;;;;;4978962;28;22033;-68
2020/12/19 05:35:44;;;;;;;29.65;5.43;;;2.60;83.90;;;;;;4980875;28;20047;-68
2020/12/19 05:38:09;;;;;;;180.48;8.85;;;2.50;84.00;;;;;;4977621;28;20658;-67
2020/12/19 05:40:36;;;;;;;77.30;6.82;;;2.60;84.30;;;;;;4977606;28;20097;-68
2020/12/19 05:43:01;;;;;;;61.30;5.85;;;2.60;84.00;;;;;;4979367;28;20496;-67
2020/12/19 05:45:28;;;;;;;93.38;6.93;;;2.50;83.70;;;;;;4979567;28;20157;-68
2020/12/19 05:47:54;;;;;;;103.60;7.40;;;2.50;83.60;;;;;;4980567;28;20449;-67
2020/12/19 05:50:21;;;;;;;81.07;6.38;;;2.50;83.70;;;;;;4978308;28;20046;-67
2020/12/19 05:52:47;;;;;;;81.20;7.32;;;2.50;83.80;;;;;;4977373;28;20041;-66
2020/12/19 05:55:19;;;;;;;10.15;5.32;;;2.40;83.80;;;;;;4978720;28;20043;-68
2020/12/19 05:57:45;;;;;;;49.72;6.38;;;2.40;84.10;;;;;;4979087;28;20034;-67
2020/12/19 06:00:17;;;;;;;70.28;6.35;;;2.40;84.40;;;;;;4980526;28;20536;-67
2020/12/19 06:02:44;;;;;;;14.70;4.95;;;2.50;84.40;;;;;;4975886;28;20065;-67
2020/12/19 06:05:14;;;;;;;27.00;5.45;;;2.50;84.30;;;;;;4978825;28;20049;-68
2020/12/19 06:07:45;;;;;;;17.05;4.78;;;2.60;84.40;;;;;;4978853;28;20086;-68
2020/12/19 06:10:12;;;;;;;30.85;5.78;;;2.60;84.40;;;;;;4993717;28;20441;-67
2020/12/19 06:12:46;;;;;;;153.07;8.00;;;2.60;84.60;;;;;;4990890;28;20043;-67
2020/12/19 06:15:18;;;;;;;68.57;6.07;;;2.70;84.30;;;;;;4979966;28;20034;-67
2020/12/19 06:17:46;;;;;;;16.05;5.35;;;2.60;84.00;;;;;;4978522;28;20508;-67
2020/12/19 06:20:15;;;;;;;159.90;9.45;;;2.60;83.80;;;;;;4973621;28;20038;-67
2020/12/19 06:22:42;;;;;;;156.57;9.00;;;2.60;83.70;;;;;;4972362;28;20039;-67
2020/12/19 06:25:07;;;;;;;209.43;11.18;;;2.70;83.50;;;;;;4975981;28;20028;-67
2020/12/19 06:27:33;;;;;;;62.65;7.35;;;2.60;83.20;;;;;;4977605;28;20512;-67
2020/12/19 06:29:59;;;;;;;24.13;6.88;;;2.50;84.00;;;;;;4976716;28;20057;-68
2020/12/19 06:32:30;;;;;;;53.33;7.85;;;2.50;83.50;;;;;;4973549;28;20035;-68
2020/12/19 06:35:02;;;;;;;25.80;7.45;;;2.50;83.80;;;;;;4973279;28;20502;-68
2020/12/19 06:37:28;;;;;;;21.95;7.45;;;2.50;83.80;;;;;;4974854;28;20038;-67
2020/12/19 06:40:14;;;;;;;125.95;9.68;;;2.50;83.90;;;;;;4978541;28;20062;-67
2020/12/19 06:42:42;;;;;;;19.25;7.75;;;2.50;84.20;;;;;;4988041;28;20410;-67
2020/12/19 06:45:25;;;;;;;73.63;8.60;;;2.50;84.10;;;;;;4976268;28;20687;-67
2020/12/19 06:47:51;;;;;;;81.28;9.75;;;2.50;84.30;;;;;;4975637;28;20498;-67
2020/12/19 06:50:18;;;;;;;88.15;10.05;;;2.50;84.10;;;;;;4974985;28;20042;-67
2020/12/19 06:52:57;;;;;;;114.53;11.38;;;2.50;84.00;;;;;;4971613;28;20444;-67
2020/12/19 06:55:25;;;;;;;52.85;8.45;;;2.50;83.70;;;;;;4975443;28;20582;-67
2020/12/19 06:57:52;;;;;;;164.18;11.68;;;2.50;83.90;;;;;;4990814;28;20518;-67
2020/12/19 07:00:23;;;;;;;53.88;8.18;;;2.50;84.00;;;;;;4973972;28;20131;-67
2020/12/19 07:02:50;;;;;;;23.95;7.25;;;2.50;84.20;;;;;;4974159;28;20477;-67
2020/12/19 07:05:24;;;;;;;58.03;8.05;;;2.40;84.40;;;;;;4970397;28;20027;-67
2020/12/19 07:07:51;;;;;;;26.83;7.10;;;2.50;84.60;;;;;;4975289;28;20050;-68
2020/12/19 07:10:34;;;;;;;38.92;7.07;;;2.50;84.50;;;;;;4974807;28;20038;-67
2020/12/19 07:13:00;;;;;;;138.00;10.38;;;2.50;84.50;;;;;;4976663;28;20034;-68
2020/12/19 07:15:43;;;;;;;45.25;6.70;;;2.60;84.40;;;;;;4971604;28;20747;-67
2020/12/19 07:18:32;;;;;;;36.20;7.82;;;2.60;84.10;;;;;;4974479;28;20045;-67
2020/12/19 07:21:08;;;;;;;13.90;6.40;;;2.60;84.30;;;;;;4964279;28;20062;-67
2020/12/19 07:23:38;;;;;;;42.90;6.53;;;2.60;84.50;;;;;;4967693;28;20127;-67
2020/12/19 07:26:06;;;;;;;53.33;7.63;;;2.60;84.50;;;;;;4966186;28;20532;-68
2020/12/19 07:28:32;;;;;;;19.00;6.30;;;2.60;84.40;;;;;;4964135;28;20039;-68
2020/12/19 07:30:57;;;;;;;21.77;6.97;;;2.60;84.40;;;;;;4965167;28;20062;-68
2020/12/19 07:33:23;;;;;;;50.22;6.85;;;2.60;84.40;;;;;;4967924;28;20126;-67
2020/12/19 07:35:49;;;;;;;43.15;7.22;;;2.60;85.30;;;;;;4963901;28;20181;-66
2020/12/19 07:38:18;;;;;;;196.07;10.32;;;2.70;84.50;;;;;;4964509;28;20134;-68
2020/12/19 07:40:44;;;;;;;153.07;10.60;;;2.70;84.50;;;;;;4969113;28;20072;-67
2020/12/19 07:43:10;;;;;;;111.10;8.70;;;2.70;84.00;;;;;;4967474;28;20068;-67
2020/12/19 07:45:38;;;;;;;70.40;7.63;;;2.60;83.70;;;;;;4969123;28;20030;-68
2020/12/19 07:48:04;;;;;;;15.52;6.40;;;2.60;83.90;;;;;;4968475;28;20034;-68
2020/12/19 07:50:32;;;;;;;75.15;7.68;;;2.60;84.00;;;;;;4965490;28;20072;-68
2020/12/19 07:52:58;;;;;;;13.15;6.10;;;2.60;84.20;;;;;;4971170;28;20030;-69
2020/12/19 07:55:24;;;;;;;27.50;6.80;;;2.60;84.30;;;;;;4982760;28;20043;-68
2020/12/19 07:57:54;;;;;;;35.75;7.38;;;2.70;84.40;;;;;;4971570;28;20039;-68
2020/12/19 08:00:20;;;;;;;70.80;7.40;;;2.70;84.20;;;;;;4966042;28;20073;-68
2020/12/19 08:02:46;;;;;;;101.60;7.78;;;2.60;84.20;;;;;;4966434;28;20035;-68
2020/12/19 08:05:12;;;;;;;95.70;7.47;;;2.70;84.10;;;;;;4964797;28;20402;-67
2020/12/19 08:07:38;;;;;;;25.80;5.50;;;2.70;84.00;;;;;;4973818;28;20038;-67
2020/12/19 08:10:08;;;;;;;49.08;6.75;;;2.70;84.00;;;;;;4975716;28;20027;-67
2020/12/19 08:12:35;;;;;;;89.00;7.40;;;2.70;84.00;;;;;;4974907;28;20438;-67
2020/12/19 08:15:04;;;;;;;48.47;6.88;;;2.70;84.00;;;;;;4979236;28;20085;-68
2020/12/19 08:17:33;;;;;;;38.00;6.82;;;2.70;84.00;;;;;;4977745;28;20089;-68
2020/12/19 08:20:00;;;;;;;62.58;7.40;;;2.70;84.00;;;;;;4977120;28;20032;-67
2020/12/19 08:22:27;;;;;;;35.38;7.72;;;2.70;84.20;;;;;;4993069;28;20117;-68
2020/12/19 08:24:53;;;;;;;15.05;6.82;;;2.80;84.30;;;;;;4979422;28;20077;-67
2020/12/19 08:27:43;;;;;;;36.78;6.97;;;2.80;84.40;;;;;;4992447;28;20031;-68
2020/12/19 08:30:19;;;;;;;64.10;7.75;;;2.80;84.40;;;;;;4980807;28;20296;-66
2020/12/19 08:32:58;;;;;;;36.47;7.00;;;2.80;84.30;;;;;;4980939;28;20031;-67
2020/12/19 08:35:30;;;;;;;20.27;6.55;;;2.90;84.30;;;;;;4981929;28;20026;-68
2020/12/19 08:38:08;;;;;;;45.83;7.47;;;2.90;84.10;;;;;;4982201;28;20030;-68
2020/12/19 08:40:36;;;;;;;45.53;6.90;;;2.90;84.00;;;;;;4979515;28;20077;-68
2020/12/19 08:43:03;;;;;;;144.65;8.52;;;2.90;83.90;;;;;;4985918;28;20034;-68
2020/12/19 08:45:36;;;;;;;137.68;8.93;;;2.90;83.80;;;;;;4982969;28;20045;-68
2020/12/19 08:48:07;;;;;;;310.02;13.10;;;2.90;83.70;;;;;;4981465;28;20627;-67
2020/12/19 08:50:40;;;;;;;180.95;9.60;;;2.90;83.00;;;;;;4975530;28;20506;-65
2020/12/19 08:53:07;;;;;;;58.70;7.68;;;2.80;82.80;;;;;;4973296;28;20058;-68
2020/12/19 08:55:33;;;;;;;90.05;7.70;;;2.70;83.00;;;;;;4978021;28;20046;-68
2020/12/19 08:57:58;;;;;;;47.50;7.82;;;2.70;84.20;;;;;;4978191;28;20037;-68
2020/12/19 09:00:24;;;;;;;41.20;9.15;;;2.70;83.70;;;;;;4980398;28;20133;-66
2020/12/19 09:02:51;;;;;;;64.50;8.75;;;2.60;83.90;;;;;;4977874;28;20031;-67
2020/12/19 09:05:30;;;;;;;145.45;10.05;;;2.60;84.10;;;;;;4976714;28;20034;-67
2020/12/19 09:07:57;;;;;;;117.88;10.20;;;2.70;84.20;;;;;;4981421;28;20113;-68
2020/12/19 09:10:27;;;;;;;137.75;11.93;;;2.70;84.20;;;;;;4978450;28;20129;-68
2020/12/19 09:13:26;;;;;;;263.50;12.32;;;2.70;84.20;;;;;;4981311;28;20065;-68
2020/12/19 09:15:57;;;;;;;135.63;9.90;;;2.70;83.50;;;;;;4963314;28;20030;-68
2020/12/19 09:18:31;;;;;;;31.58;7.65;;;2.70;83.70;;;;;;4979514;28;20118;-68
2020/12/19 09:20:58;;;;;;;155.15;9.35;;;2.70;83.60;;;;;;4981160;28;20065;-68
2020/12/19 09:23:25;;;;;;;26.95;8.85;;;2.70;83.90;;;;;;4982469;28;20038;-68
2020/12/19 09:25:53;;;;;;;153.35;10.25;;;2.70;83.90;;;;;;4979395;28;20049;-67
2020/12/19 09:28:19;;;;;;;113.20;10.05;;;2.60;83.80;;;;;;4980296;28;20554;-67
2020/12/19 09:30:45;;;;;;;57.00;8.73;;;2.60;83.50;;;;;;4978115;28;20056;-68
2020/12/19 09:33:11;;;;;;;59.50;9.25;;;2.60;83.60;;;;;;4981894;28;20042;-68
2020/12/19 09:35:37;;;;;;;103.05;10.05;;;2.60;84.00;;;;;;4982120;28;20457;-67
2020/12/19 09:38:03;;;;;;;142.80;10.30;;;2.60;84.30;;;;;;4980005;28;20030;-67
2020/12/19 09:40:29;;;;;;;77.88;7.18;;;2.60;84.40;;;;;;4978215;28;20050;-68
2020/12/19 09:42:55;;;;;;;184.95;8.63;;;2.60;84.10;;;;;;4981130;28;20047;-68
2020/12/19 09:45:20;;;;;;;86.57;8.50;;;2.60;84.40;;;;;;4978486;28;20512;-69
2020/12/19 09:47:46;;;;;;;96.32;7.88;;;2.60;83.90;;;;;;4981424;28;20031;-69
2020/12/19 09:50:13;;;;;;;134.52;9.32;;;2.60;83.90;;;;;;4981741;28;20073;-67
2020/12/19 09:52:39;;;;;;;118.05;7.03;;;2.60;83.90;;;;;;4981400;28;20484;-68
2020/12/19 09:55:07;;;;;;;73.55;6.93;;;2.50;83.70;;;;;;4980863;28;20533;-68
2020/12/19 09:57:32;;;;;;;80.15;7.70;;;2.50;83.70;;;;;;4981406;28;20038;-68
2020/12/19 09:59:59;;;;;;;68.22;6.28;;;2.50;83.90;;;;;;4982037;28;20045;-68
2020/12/19 10:02:24;;;;;;;126.28;8.27;;;2.50;85.10;;;;;;4981921;28;20580;-68
2020/12/19 10:04:50;;;;;;;27.60;5.70;;;2.50;84.50;;;;;;4980010;28;20064;-67
2020/12/19 10:07:16;;;;;;;34.80;5.60;;;2.50;84.40;;;;;;4979862;28;20065;-68
2020/12/19 10:09:41;;;;;;;50.17;5.80;;;2.50;84.50;;;;;;4981483;28;20038;-67
2020/12/19 10:12:07;;;;;;;54.33;6.50;;;2.60;84.50;;;;;;4980411;28;20038;-68
2020/12/19 10:14:33;;;;;;;50.85;6.32;;;2.60;84.20;;;;;;4980611;28;20038;-67
2020/12/19 10:16:58;;;;;;;19.38;5.30;;;2.60;84.10;;;;;;4980645;28;20505;-67
2020/12/19 10:19:24;;;;;;;29.77;5.88;;;2.50;84.00;;;;;;4981055;28;21025;-68
2020/12/19 10:21:50;;;;;;;36.63;5.85;;;2.50;84.20;;;;;;4981778;28;20505;-67
2020/12/19 10:24:15;;;;;;;31.10;5.50;;;2.60;84.30;;;;;;4980948;28;20399;-68
2020/12/19 10:26:41;;;;;;;46.90;7.40;;;2.60;84.30;;;;;;4981299;28;20394;-67
2020/12/19 10:29:07;;;;;;;84.40;8.00;;;2.60;84.50;;;;;;4981189;28;20125;-68
2020/12/19 10:31:34;;;;;;;55.53;6.38;;;2.60;84.70;;;;;;4979331;28;20030;-68
2020/12/19 10:34:00;;;;;;;22.95;5.53;;;2.70;84.70;;;;;;4979882;28;20065;-68
2020/12/19 10:36:26;;;;;;;31.58;5.80;;;2.70;85.40;;;;;;4981158;28;20058;-67
2020/12/19 10:38:51;;;;;;;36.17;5.90;;;2.70;84.30;;;;;;4980802;28;20517;-68
2020/12/19 10:41:18;;;;;;;26.58;6.15;;;2.80;84.10;;;;;;4980715;28;20042;-68
2020/12/19 10:43:44;;;;;;;55.80;8.60;;;2.80;84.40;;;;;;4981158;28;20042;-67
2020/12/19 10:46:09;;;;;;;46.78;7.20;;;2.70;84.60;;;;;;4980452;28;20081;-67
2020/12/19 10:48:35;;;;;;;34.03;6.88;;;2.80;84.70;;;;;;4979446;28;20122;-68
2020/12/19 10:51:01;;;;;;;30.67;6.50;;;2.80;84.80;;;;;;4981380;28;20069;-67
2020/12/19 10:53:26;;;;;;;65.20;7.30;;;2.90;85.00;;;;;;4979287;28;20462;-68
2020/12/19 10:55:52;;;;;;;91.60;7.22;;;2.90;84.90;;;;;;4978381;28;20505;-68
2020/12/19 10:58:18;;;;;;;86.50;7.38;;;3.00;84.90;;;;;;4980230;28;20042;-67
2020/12/19 11:00:44;;;;;;;98.00;8.30;;;3.00;84.80;;;;;;4977972;28;20517;-68
2020/12/19 11:03:10;;;;;;;17.75;6.57;;;3.00;84.20;;;;;;4977406;28;20096;-68
2020/12/19 11:05:42;;;;;;;23.85;6.30;;;3.10;84.20;;;;;;4978613;28;20085;-68
2020/12/19 11:08:08;;;;;;;47.35;7.18;;;3.10;84.70;;;;;;4994378;28;20389;-67
2020/12/19 11:10:34;;;;;;;31.85;6.90;;;3.10;84.90;;;;;;4977531;28;20105;-68
2020/12/19 11:13:03;;;;;;;65.00;7.57;;;3.10;84.90;;;;;;4978117;28;20402;-68
2020/12/19 11:15:32;;;;;;;50.95;7.50;;;3.10;84.90;;;;;;4993859;28;20524;-68
2020/12/19 11:17:58;;;;;;;39.35;6.25;;;3.20;84.50;;;;;;4978408;28;20035;-68
2020/12/19 11:20:24;;;;;;;64.47;7.40;;;3.20;84.20;;;;;;4978876;28;20042;-68
2020/12/19 11:22:50;;;;;;;22.27;6.00;;;3.20;84.00;;;;;;4979127;28;20038;-68
2020/12/19 11:25:16;;;;;;;83.70;8.43;;;3.10;84.10;;;;;;4980017;28;20569;-69
2020/12/19 11:27:42;;;;;;;32.15;7.20;;;3.10;84.40;;;;;;4980403;28;20035;-68
2020/12/19 11:30:08;;;;;;;31.50;6.78;;;3.10;84.60;;;;;;4994498;28;20038;-68
2020/12/19 11:32:34;;;;;;;28.02;7.65;;;3.10;84.80;;;;;;4979466;28;20031;-68
2020/12/19 11:34:59;;;;;;;32.20;7.38;;;3.20;85.10;;;;;;4979971;28;20038;-69
2020/12/19 11:37:25;;;;;;;16.58;7.90;;;3.20;85.30;;;;;;4979494;28;20027;-68
2020/12/19 11:39:53;;;;;;;77.32;8.90;;;3.30;85.40;;;;;;4994425;28;20039;-67
2020/12/19 11:42:20;;;;;;;49.47;9.05;;;3.30;85.40;;;;;;4979163;28;20035;-68
2020/12/19 11:44:46;;;;;;;54.83;8.15;;;3.40;85.30;;;;;;4979752;28;20113;-68
2020/12/19 11:47:12;;;;;;;22.90;7.28;;;3.50;85.80;;;;;;4979074;28;20030;-68
2020/12/19 11:49:37;;;;;;;13.40;7.38;;;3.50;84.60;;;;;;4991369;28;20050;-68
2020/12/19 11:52:03;;;;;;;14.07;7.45;;;3.50;85.10;;;;;;4978557;28;20034;-68
2020/12/19 11:54:29;;;;;;;16.38;7.45;;;3.50;84.70;;;;;;4978402;28;20030;-67
2020/12/19 11:56:54;;;;;;;16.65;7.70;;;3.60;84.80;;;;;;4977584;28;20734;-67
2020/12/19 11:59:20;;;;;;;12.95;7.85;;;3.60;85.90;;;;;;4980230;28;20093;-68
2020/12/19 12:01:46;;;;;;;23.23;7.40;;;3.70;85.20;;;;;;4979706;28;20046;-68
2020/12/19 12:04:11;;;;;;;16.55;9.05;;;3.70;85.20;;;;;;4979386;28;20069;-68
2020/12/19 12:06:37;;;;;;;15.10;8.13;;;3.80;85.10;;;;;;4979179;28;20062;-68
2020/12/19 12:09:06;;;;;;;14.07;7.78;;;3.80;84.80;;;;;;4979210;28;20026;-68
2020/12/19 12:11:33;;;;;;;21.75;8.63;;;3.80;84.70;;;;;;4978747;28;20502;-68
2020/12/19 12:13:59;;;;;;;44.97;10.30;;;3.90;84.70;;;;;;4994635;28;20513;-67
2020/12/19 12:16:26;;;;;;;17.08;9.60;;;4.00;84.70;;;;;;4978392;28;20035;-67
2020/12/19 12:18:52;;;;;;;23.13;9.02;;;4.00;84.20;;;;;;4979627;28;20439;-68
2020/12/19 12:21:18;;;;;;;13.10;8.13;;;4.00;84.20;;;;;;4979810;28;20069;-68
2020/12/19 12:23:45;;;;;;;12.13;7.88;;;4.00;84.40;;;;;;4978808;28;20498;-67
2020/12/19 12:26:11;;;;;;;55.10;8.23;;;4.10;84.40;;;;;;4978822;28;20033;-68
2020/12/19 12:28:37;;;;;;;14.73;6.72;;;4.10;84.40;;;;;;4981270;28;20031;-67
2020/12/19 12:31:03;;;;;;;12.32;7.00;;;4.10;84.60;;;;;;4982781;28;20438;-67
2020/12/19 12:33:28;;;;;;;12.88;6.53;;;4.10;84.00;;;;;;4982713;28;20059;-67
2020/12/19 12:35:54;;;;;;;12.70;5.75;;;4.10;83.90;;;;;;4983453;28;20548;-67
2020/12/19 12:38:19;;;;;;;26.80;7.30;;;4.10;83.90;;;;;;4982634;28;20033;-67
2020/12/19 12:40:45;;;;;;;19.23;6.53;;;4.10;84.00;;;;;;4982608;28;21241;-67
2020/12/19 12:43:11;;;;;;;36.33;8.45;;;4.10;84.10;;;;;;4983637;28;20035;-68